sensor_id;sensor_type;location;lat;lon;timestamp;P1;durP1;ratioP1;P2;durP2;ratioP2
58864;SDS011;45702;52.982;6.658;2023-01-26T00:00:48;135.70;;;27.52;;
58864;SDS011;45702;52.982;6.658;2023-01-26T00:03:14;130.52;;;26.85;;
58864;SDS011;45702;52.982;6.658;2023-01-26T00:05:40;127.18;;;25.48;;
58864;SDS011;45702;52.982;6.658;2023-01-26T00:08:06;138.75;;;27.33;;
58864;SDS011;45702;52.982;6.658;2023-01-26T00:10:36;123.75;;;24.92;;
58864;SDS011;45702;52.982;6.658;2023-01-26T00:13:02;135.60;;;26.17;;
58864;SDS011;45702;52.982;6.658;2023-01-26T00:15:30;132.32;;;25.33;;
58864;SDS011;45702;52.982;6.658;2023-01-26T00:20:23;111.47;;;24.38;;
58864;SDS011;45702;52.982;6.658;2023-01-26T00:22:49;119.75;;;24.13;;
58864;SDS011;45702;52.982;6.658;2023-01-26T00:25:15;105.03;;;23.52;;
58864;SDS011;45702;52.982;6.658;2023-01-26T00:27:40;104.45;;;22.73;;
58864;SDS011;45702;52.982;6.658;2023-01-26T00:30:06;97.80;;;21.35;;
58864;SDS011;45702;52.982;6.658;2023-01-26T00:32:36;104.03;;;22.95;;
58864;SDS011;45702;52.982;6.658;2023-01-26T00:35:03;106.80;;;23.02;;
58864;SDS011;45702;52.982;6.658;2023-01-26T00:37:29;108.15;;;22.27;;
58864;SDS011;45702;52.982;6.658;2023-01-26T00:39:55;104.85;;;23.52;;
58864;SDS011;45702;52.982;6.658;2023-01-26T00:42:20;103.93;;;23.08;;
58864;SDS011;45702;52.982;6.658;2023-01-26T00:44:48;108.97;;;23.55;;
58864;SDS011;45702;52.982;6.658;2023-01-26T00:47:15;110.20;;;24.20;;
58864;SDS011;45702;52.982;6.658;2023-01-26T00:49:41;114.43;;;22.98;;
58864;SDS011;45702;52.982;6.658;2023-01-26T00:52:08;117.70;;;23.27;;
58864;SDS011;45702;52.982;6.658;2023-01-26T00:54:34;124.20;;;23.92;;
58864;SDS011;45702;52.982;6.658;2023-01-26T00:57:00;120.97;;;23.60;;
58864;SDS011;45702;52.982;6.658;2023-01-26T00:59:25;114.00;;;23.52;;
58864;SDS011;45702;52.982;6.658;2023-01-26T01:01:51;117.78;;;23.50;;
58864;SDS011;45702;52.982;6.658;2023-01-26T01:04:18;116.60;;;24.17;;
58864;SDS011;45702;52.982;6.658;2023-01-26T01:06:44;117.90;;;24.70;;
58864;SDS011;45702;52.982;6.658;2023-01-26T01:09:09;117.07;;;23.98;;
58864;SDS011;45702;52.982;6.658;2023-01-26T01:11:35;112.70;;;23.52;;
58864;SDS011;45702;52.982;6.658;2023-01-26T01:14:01;118.35;;;23.23;;
58864;SDS011;45702;52.982;6.658;2023-01-26T01:16:27;122.90;;;23.48;;
58864;SDS011;45702;52.982;6.658;2023-01-26T01:18:53;117.63;;;23.65;;
58864;SDS011;45702;52.982;6.658;2023-01-26T01:21:20;104.03;;;21.20;;
58864;SDS011;45702;52.982;6.658;2023-01-26T01:23:47;106.18;;;21.48;;
58864;SDS011;45702;52.982;6.658;2023-01-26T01:26:13;99.43;;;20.50;;
58864;SDS011;45702;52.982;6.658;2023-01-26T01:28:39;105.78;;;22.70;;
58864;SDS011;45702;52.982;6.658;2023-01-26T01:31:07;114.60;;;22.70;;
58864;SDS011;45702;52.982;6.658;2023-01-26T01:33:40;122.18;;;22.40;;
58864;SDS011;45702;52.982;6.658;2023-01-26T01:36:07;112.25;;;21.70;;
58864;SDS011;45702;52.982;6.658;2023-01-26T01:41:00;93.53;;;21.10;;
58864;SDS011;45702;52.982;6.658;2023-01-26T01:43:27;91.25;;;21.02;;
58864;SDS011;45702;52.982;6.658;2023-01-26T01:45:53;106.32;;;22.85;;
58864;SDS011;45702;52.982;6.658;2023-01-26T01:50:53;102.07;;;21.20;;
58864;SDS011;45702;52.982;6.658;2023-01-26T01:53:23;106.03;;;22.38;;
58864;SDS011;45702;52.982;6.658;2023-01-26T01:55:57;100.35;;;22.00;;
58864;SDS011;45702;52.982;6.658;2023-01-26T01:58:27;112.38;;;24.08;;
58864;SDS011;45702;52.982;6.658;2023-01-26T02:00:56;97.68;;;21.48;;
58864;SDS011;45702;52.982;6.658;2023-01-26T02:03:23;103.60;;;23.13;;
58864;SDS011;45702;52.982;6.658;2023-01-26T02:06:04;98.55;;;22.10;;
58864;SDS011;45702;52.982;6.658;2023-01-26T02:08:39;116.65;;;22.15;;
58864;SDS011;45702;52.982;6.658;2023-01-26T02:11:11;102.55;;;22.70;;
58864;SDS011;45702;52.982;6.658;2023-01-26T02:13:41;97.05;;;20.88;;
58864;SDS011;45702;52.982;6.658;2023-01-26T02:16:08;96.68;;;20.50;;
58864;SDS011;45702;52.982;6.658;2023-01-26T02:18:34;98.75;;;22.02;;
58864;SDS011;45702;52.982;6.658;2023-01-26T02:21:01;99.45;;;21.52;;
58864;SDS011;45702;52.982;6.658;2023-01-26T02:23:35;97.88;;;21.02;;
58864;SDS011;45702;52.982;6.658;2023-01-26T02:28:53;101.13;;;21.23;;
58864;SDS011;45702;52.982;6.658;2023-01-26T02:31:21;109.05;;;21.55;;
58864;SDS011;45702;52.982;6.658;2023-01-26T02:33:48;115.57;;;22.53;;
58864;SDS011;45702;52.982;6.658;2023-01-26T02:36:19;111.95;;;22.75;;
58864;SDS011;45702;52.982;6.658;2023-01-26T02:38:50;110.63;;;21.45;;
58864;SDS011;45702;52.982;6.658;2023-01-26T02:41:41;115.43;;;22.65;;
58864;SDS011;45702;52.982;6.658;2023-01-26T02:44:25;103.95;;;21.83;;
58864;SDS011;45702;52.982;6.658;2023-01-26T02:46:52;92.75;;;20.08;;
58864;SDS011;45702;52.982;6.658;2023-01-26T02:49:17;95.80;;;20.08;;
58864;SDS011;45702;52.982;6.658;2023-01-26T02:52:03;102.43;;;19.80;;
58864;SDS011;45702;52.982;6.658;2023-01-26T02:54:29;89.70;;;19.90;;
58864;SDS011;45702;52.982;6.658;2023-01-26T02:57:13;89.22;;;18.95;;
58864;SDS011;45702;52.982;6.658;2023-01-26T02:59:39;82.10;;;19.27;;
58864;SDS011;45702;52.982;6.658;2023-01-26T03:02:05;97.30;;;20.05;;
58864;SDS011;45702;52.982;6.658;2023-01-26T03:04:32;93.70;;;19.95;;
58864;SDS011;45702;52.982;6.658;2023-01-26T03:06:57;90.75;;;19.50;;
58864;SDS011;45702;52.982;6.658;2023-01-26T03:09:23;89.00;;;19.20;;
58864;SDS011;45702;52.982;6.658;2023-01-26T03:11:49;91.68;;;20.40;;
58864;SDS011;45702;52.982;6.658;2023-01-26T03:14:14;95.85;;;20.50;;
58864;SDS011;45702;52.982;6.658;2023-01-26T03:16:40;84.97;;;19.15;;
58864;SDS011;45702;52.982;6.658;2023-01-26T03:19:07;93.30;;;19.05;;
58864;SDS011;45702;52.982;6.658;2023-01-26T03:21:54;83.60;;;19.75;;
58864;SDS011;45702;52.982;6.658;2023-01-26T03:24:38;91.13;;;19.33;;
58864;SDS011;45702;52.982;6.658;2023-01-26T03:27:23;87.38;;;19.00;;
58864;SDS011;45702;52.982;6.658;2023-01-26T03:29:51;95.60;;;21.10;;
58864;SDS011;45702;52.982;6.658;2023-01-26T03:32:17;106.20;;;20.27;;
58864;SDS011;45702;52.982;6.658;2023-01-26T03:34:43;97.97;;;20.30;;
58864;SDS011;45702;52.982;6.658;2023-01-26T03:37:09;90.60;;;19.17;;
58864;SDS011;45702;52.982;6.658;2023-01-26T03:39:35;91.20;;;19.33;;
58864;SDS011;45702;52.982;6.658;2023-01-26T03:42:19;90.60;;;19.15;;
58864;SDS011;45702;52.982;6.658;2023-01-26T03:45:04;87.45;;;18.83;;
58864;SDS011;45702;52.982;6.658;2023-01-26T03:47:48;105.03;;;20.55;;
58864;SDS011;45702;52.982;6.658;2023-01-26T03:50:32;87.53;;;19.10;;
58864;SDS011;45702;52.982;6.658;2023-01-26T03:53:18;82.68;;;17.88;;
58864;SDS011;45702;52.982;6.658;2023-01-26T03:56:04;76.57;;;16.80;;
58864;SDS011;45702;52.982;6.658;2023-01-26T03:58:46;106.88;;;18.55;;
58864;SDS011;45702;52.982;6.658;2023-01-26T04:01:13;98.55;;;18.27;;
58864;SDS011;45702;52.982;6.658;2023-01-26T04:03:44;112.78;;;19.02;;
58864;SDS011;45702;52.982;6.658;2023-01-26T04:06:32;78.72;;;17.40;;
58864;SDS011;45702;52.982;6.658;2023-01-26T04:09:17;91.28;;;17.10;;
58864;SDS011;45702;52.982;6.658;2023-01-26T04:11:42;69.88;;;16.40;;
58864;SDS011;45702;52.982;6.658;2023-01-26T04:14:12;72.93;;;16.48;;
58864;SDS011;45702;52.982;6.658;2023-01-26T04:16:58;71.80;;;15.88;;
58864;SDS011;45702;52.982;6.658;2023-01-26T04:19:43;92.95;;;17.30;;
58864;SDS011;45702;52.982;6.658;2023-01-26T04:22:27;69.35;;;16.95;;
58864;SDS011;45702;52.982;6.658;2023-01-26T04:24:53;70.28;;;16.25;;
58864;SDS011;45702;52.982;6.658;2023-01-26T04:27:19;77.55;;;16.80;;
58864;SDS011;45702;52.982;6.658;2023-01-26T04:29:45;76.97;;;16.98;;
58864;SDS011;45702;52.982;6.658;2023-01-26T04:32:10;74.00;;;16.08;;
58864;SDS011;45702;52.982;6.658;2023-01-26T04:34:36;73.10;;;16.17;;
58864;SDS011;45702;52.982;6.658;2023-01-26T04:37:02;71.03;;;16.10;;
58864;SDS011;45702;52.982;6.658;2023-01-26T04:39:27;86.25;;;17.50;;
58864;SDS011;45702;52.982;6.658;2023-01-26T04:41:53;69.90;;;15.77;;
58864;SDS011;45702;52.982;6.658;2023-01-26T04:44:19;73.85;;;16.35;;
58864;SDS011;45702;52.982;6.658;2023-01-26T04:46:44;67.03;;;16.80;;
58864;SDS011;45702;52.982;6.658;2023-01-26T04:49:12;69.00;;;15.70;;
58864;SDS011;45702;52.982;6.658;2023-01-26T04:51:37;66.20;;;16.40;;
58864;SDS011;45702;52.982;6.658;2023-01-26T04:54:03;77.90;;;16.33;;
58864;SDS011;45702;52.982;6.658;2023-01-26T04:56:30;70.93;;;16.35;;
58864;SDS011;45702;52.982;6.658;2023-01-26T04:58:58;78.93;;;16.30;;
58864;SDS011;45702;52.982;6.658;2023-01-26T05:01:25;79.00;;;17.95;;
58864;SDS011;45702;52.982;6.658;2023-01-26T05:03:51;86.72;;;17.27;;
58864;SDS011;45702;52.982;6.658;2023-01-26T05:06:17;80.00;;;17.20;;
58864;SDS011;45702;52.982;6.658;2023-01-26T05:08:42;74.35;;;16.77;;
58864;SDS011;45702;52.982;6.658;2023-01-26T05:11:08;75.65;;;17.63;;
58864;SDS011;45702;52.982;6.658;2023-01-26T05:13:34;76.25;;;16.48;;
58864;SDS011;45702;52.982;6.658;2023-01-26T05:16:01;78.25;;;17.45;;
58864;SDS011;45702;52.982;6.658;2023-01-26T05:18:28;77.13;;;17.75;;
58864;SDS011;45702;52.982;6.658;2023-01-26T05:20:54;76.82;;;16.70;;
58864;SDS011;45702;52.982;6.658;2023-01-26T05:23:20;79.90;;;17.52;;
58864;SDS011;45702;52.982;6.658;2023-01-26T05:25:46;79.53;;;17.52;;
58864;SDS011;45702;52.982;6.658;2023-01-26T05:28:12;90.47;;;17.63;;
58864;SDS011;45702;52.982;6.658;2023-01-26T05:30:38;85.15;;;17.00;;
58864;SDS011;45702;52.982;6.658;2023-01-26T05:33:04;92.80;;;17.95;;
58864;SDS011;45702;52.982;6.658;2023-01-26T05:35:33;79.65;;;17.00;;
58864;SDS011;45702;52.982;6.658;2023-01-26T05:37:59;96.88;;;18.85;;
58864;SDS011;45702;52.982;6.658;2023-01-26T05:40:24;91.80;;;19.35;;
58864;SDS011;45702;52.982;6.658;2023-01-26T05:42:51;97.93;;;19.25;;
58864;SDS011;45702;52.982;6.658;2023-01-26T05:45:17;78.93;;;17.05;;
58864;SDS011;45702;52.982;6.658;2023-01-26T05:47:43;88.43;;;18.85;;
58864;SDS011;45702;52.982;6.658;2023-01-26T05:50:10;84.43;;;19.42;;
58864;SDS011;45702;52.982;6.658;2023-01-26T05:52:36;94.72;;;19.15;;
58864;SDS011;45702;52.982;6.658;2023-01-26T05:55:03;106.90;;;19.80;;
58864;SDS011;45702;52.982;6.658;2023-01-26T05:57:29;124.20;;;18.95;;
58864;SDS011;45702;52.982;6.658;2023-01-26T05:59:55;98.60;;;17.33;;
58864;SDS011;45702;52.982;6.658;2023-01-26T06:02:21;107.82;;;19.48;;
58864;SDS011;45702;52.982;6.658;2023-01-26T06:04:47;91.30;;;18.45;;
58864;SDS011;45702;52.982;6.658;2023-01-26T06:07:13;109.20;;;20.13;;
58864;SDS011;45702;52.982;6.658;2023-01-26T06:09:39;113.00;;;19.73;;
58864;SDS011;45702;52.982;6.658;2023-01-26T06:12:06;117.32;;;20.60;;
58864;SDS011;45702;52.982;6.658;2023-01-26T06:14:42;107.68;;;20.13;;
58864;SDS011;45702;52.982;6.658;2023-01-26T06:17:08;114.60;;;19.75;;
58864;SDS011;45702;52.982;6.658;2023-01-26T06:19:34;117.53;;;20.73;;
58864;SDS011;45702;52.982;6.658;2023-01-26T06:22:02;110.03;;;21.05;;
58864;SDS011;45702;52.982;6.658;2023-01-26T06:24:28;107.50;;;19.67;;
58864;SDS011;45702;52.982;6.658;2023-01-26T06:26:54;97.43;;;19.55;;
58864;SDS011;45702;52.982;6.658;2023-01-26T06:29:20;99.28;;;20.25;;
58864;SDS011;45702;52.982;6.658;2023-01-26T06:31:46;131.25;;;21.48;;
58864;SDS011;45702;52.982;6.658;2023-01-26T06:34:12;111.43;;;21.83;;
58864;SDS011;45702;52.982;6.658;2023-01-26T06:36:37;94.90;;;20.15;;
58864;SDS011;45702;52.982;6.658;2023-01-26T06:39:03;95.75;;;18.52;;
58864;SDS011;45702;52.982;6.658;2023-01-26T06:41:29;133.68;;;20.70;;
58864;SDS011;45702;52.982;6.658;2023-01-26T06:43:54;169.32;;;21.00;;
58864;SDS011;45702;52.982;6.658;2023-01-26T06:46:20;115.15;;;20.50;;
58864;SDS011;45702;52.982;6.658;2023-01-26T06:48:46;135.07;;;21.52;;
58864;SDS011;45702;52.982;6.658;2023-01-26T06:53:56;143.48;;;24.77;;
58864;SDS011;45702;52.982;6.658;2023-01-26T06:56:23;105.95;;;24.30;;
58864;SDS011;45702;52.982;6.658;2023-01-26T06:58:51;136.00;;;24.50;;
58864;SDS011;45702;52.982;6.658;2023-01-26T07:01:18;144.25;;;22.02;;
58864;SDS011;45702;52.982;6.658;2023-01-26T07:03:48;114.13;;;21.05;;
58864;SDS011;45702;52.982;6.658;2023-01-26T07:06:15;125.30;;;20.88;;
58864;SDS011;45702;52.982;6.658;2023-01-26T07:08:41;144.32;;;22.85;;
58864;SDS011;45702;52.982;6.658;2023-01-26T07:11:06;119.38;;;21.33;;
58864;SDS011;45702;52.982;6.658;2023-01-26T07:13:33;129.02;;;22.17;;
58864;SDS011;45702;52.982;6.658;2023-01-26T07:16:02;113.18;;;21.42;;
58864;SDS011;45702;52.982;6.658;2023-01-26T07:18:30;100.35;;;21.02;;
58864;SDS011;45702;52.982;6.658;2023-01-26T07:21:00;98.00;;;19.98;;
58864;SDS011;45702;52.982;6.658;2023-01-26T07:23:26;111.78;;;21.70;;
58864;SDS011;45702;52.982;6.658;2023-01-26T07:25:52;166.10;;;23.27;;
58864;SDS011;45702;52.982;6.658;2023-01-26T07:28:17;124.43;;;22.35;;
58864;SDS011;45702;52.982;6.658;2023-01-26T07:30:43;129.43;;;25.05;;
58864;SDS011;45702;52.982;6.658;2023-01-26T07:33:09;130.00;;;24.95;;
58864;SDS011;45702;52.982;6.658;2023-01-26T07:35:34;148.50;;;23.67;;
58864;SDS011;45702;52.982;6.658;2023-01-26T07:38:02;119.43;;;24.95;;
58864;SDS011;45702;52.982;6.658;2023-01-26T07:40:28;133.50;;;26.45;;
58864;SDS011;45702;52.982;6.658;2023-01-26T07:42:54;125.25;;;24.00;;
58864;SDS011;45702;52.982;6.658;2023-01-26T07:45:20;105.40;;;22.05;;
58864;SDS011;45702;52.982;6.658;2023-01-26T07:47:46;195.13;;;23.50;;
58864;SDS011;45702;52.982;6.658;2023-01-26T07:50:12;193.10;;;24.75;;
58864;SDS011;45702;52.982;6.658;2023-01-26T07:52:38;172.85;;;24.08;;
58864;SDS011;45702;52.982;6.658;2023-01-26T07:55:04;204.57;;;22.38;;
58864;SDS011;45702;52.982;6.658;2023-01-26T07:57:30;184.15;;;23.48;;
58864;SDS011;45702;52.982;6.658;2023-01-26T07:59:58;223.27;;;24.10;;
58864;SDS011;45702;52.982;6.658;2023-01-26T08:02:23;125.22;;;21.50;;
58864;SDS011;45702;52.982;6.658;2023-01-26T08:04:49;172.38;;;23.38;;
58864;SDS011;45702;52.982;6.658;2023-01-26T08:07:15;157.20;;;23.20;;
58864;SDS011;45702;52.982;6.658;2023-01-26T08:09:40;152.57;;;23.90;;
58864;SDS011;45702;52.982;6.658;2023-01-26T08:12:06;127.70;;;21.60;;
58864;SDS011;45702;52.982;6.658;2023-01-26T08:14:32;164.80;;;21.73;;
58864;SDS011;45702;52.982;6.658;2023-01-26T08:16:58;153.00;;;21.58;;
58864;SDS011;45702;52.982;6.658;2023-01-26T08:19:25;152.70;;;21.88;;
58864;SDS011;45702;52.982;6.658;2023-01-26T08:21:50;122.22;;;22.00;;
58864;SDS011;45702;52.982;6.658;2023-01-26T08:24:17;105.15;;;20.30;;
58864;SDS011;45702;52.982;6.658;2023-01-26T08:26:42;136.68;;;22.50;;
58864;SDS011;45702;52.982;6.658;2023-01-26T08:29:08;198.70;;;25.58;;
58864;SDS011;45702;52.982;6.658;2023-01-26T08:31:34;129.32;;;21.88;;
58864;SDS011;45702;52.982;6.658;2023-01-26T08:34:00;176.30;;;25.27;;
58864;SDS011;45702;52.982;6.658;2023-01-26T08:36:25;169.05;;;25.70;;
58864;SDS011;45702;52.982;6.658;2023-01-26T08:38:52;170.60;;;28.48;;
58864;SDS011;45702;52.982;6.658;2023-01-26T08:41:18;149.68;;;27.88;;
58864;SDS011;45702;52.982;6.658;2023-01-26T08:43:44;170.73;;;29.67;;
58864;SDS011;45702;52.982;6.658;2023-01-26T08:46:10;164.00;;;28.05;;
58864;SDS011;45702;52.982;6.658;2023-01-26T08:48:35;146.80;;;27.15;;
58864;SDS011;45702;52.982;6.658;2023-01-26T08:51:02;170.63;;;29.38;;
58864;SDS011;45702;52.982;6.658;2023-01-26T08:53:29;187.82;;;30.30;;
58864;SDS011;45702;52.982;6.658;2023-01-26T08:55:56;232.02;;;31.20;;
58864;SDS011;45702;52.982;6.658;2023-01-26T08:58:24;161.00;;;27.92;;
58864;SDS011;45702;52.982;6.658;2023-01-26T09:00:50;153.50;;;32.25;;
58864;SDS011;45702;52.982;6.658;2023-01-26T09:03:16;269.95;;;34.47;;
58864;SDS011;45702;52.982;6.658;2023-01-26T09:05:41;222.32;;;33.47;;
58864;SDS011;45702;52.982;6.658;2023-01-26T09:08:08;171.75;;;32.10;;
58864;SDS011;45702;52.982;6.658;2023-01-26T09:10:35;155.40;;;30.00;;
58864;SDS011;45702;52.982;6.658;2023-01-26T09:13:01;137.90;;;29.60;;
58864;SDS011;45702;52.982;6.658;2023-01-26T09:15:27;137.45;;;29.08;;
58864;SDS011;45702;52.982;6.658;2023-01-26T09:17:53;199.93;;;34.40;;
58864;SDS011;45702;52.982;6.658;2023-01-26T09:20:18;149.82;;;27.85;;
58864;SDS011;45702;52.982;6.658;2023-01-26T09:22:44;143.55;;;31.38;;
58864;SDS011;45702;52.982;6.658;2023-01-26T09:25:10;150.55;;;27.92;;
58864;SDS011;45702;52.982;6.658;2023-01-26T09:27:36;124.63;;;23.30;;
58864;SDS011;45702;52.982;6.658;2023-01-26T09:30:03;112.80;;;20.42;;
58864;SDS011;45702;52.982;6.658;2023-01-26T09:32:29;100.88;;;20.25;;
58864;SDS011;45702;52.982;6.658;2023-01-26T09:34:55;109.53;;;19.23;;
58864;SDS011;45702;52.982;6.658;2023-01-26T09:37:20;139.88;;;20.08;;
58864;SDS011;45702;52.982;6.658;2023-01-26T09:39:46;132.35;;;19.05;;
58864;SDS011;45702;52.982;6.658;2023-01-26T09:42:28;126.00;;;18.38;;
58864;SDS011;45702;52.982;6.658;2023-01-26T09:45:59;126.20;;;18.10;;
58864;SDS011;45702;52.982;6.658;2023-01-26T09:48:28;135.95;;;17.95;;
58864;SDS011;45702;52.982;6.658;2023-01-26T09:51:19;125.78;;;15.80;;
58864;SDS011;45702;52.982;6.658;2023-01-26T09:56:51;104.50;;;14.35;;
58864;SDS011;45702;52.982;6.658;2023-01-26T10:01:52;95.82;;;13.75;;
58864;SDS011;45702;52.982;6.658;2023-01-26T10:04:41;100.35;;;12.73;;
58864;SDS011;45702;52.982;6.658;2023-01-26T10:07:11;94.03;;;11.50;;
58864;SDS011;45702;52.982;6.658;2023-01-26T10:09:38;81.18;;;10.60;;
58864;SDS011;45702;52.982;6.658;2023-01-26T10:12:07;80.57;;;9.98;;
58864;SDS011;45702;52.982;6.658;2023-01-26T10:14:48;86.95;;;10.45;;
58864;SDS011;45702;52.982;6.658;2023-01-26T10:17:34;71.55;;;9.25;;
58864;SDS011;45702;52.982;6.658;2023-01-26T10:20:24;66.20;;;8.23;;
58864;SDS011;45702;52.982;6.658;2023-01-26T10:22:58;61.22;;;7.90;;
58864;SDS011;45702;52.982;6.658;2023-01-26T10:25:34;64.25;;;7.75;;
58864;SDS011;45702;52.982;6.658;2023-01-26T10:30:41;62.05;;;8.45;;
58864;SDS011;45702;52.982;6.658;2023-01-26T10:33:11;53.38;;;6.32;;
58864;SDS011;45702;52.982;6.658;2023-01-26T10:36:02;43.03;;;6.40;;
58864;SDS011;45702;52.982;6.658;2023-01-26T10:43:36;42.70;;;5.18;;
58864;SDS011;45702;52.982;6.658;2023-01-26T10:46:05;47.17;;;5.97;;
58864;SDS011;45702;52.982;6.658;2023-01-26T10:48:50;44.13;;;5.32;;
58864;SDS011;45702;52.982;6.658;2023-01-26T10:51:21;35.60;;;5.20;;
58864;SDS011;45702;52.982;6.658;2023-01-26T10:53:49;43.15;;;5.28;;
58864;SDS011;45702;52.982;6.658;2023-01-26T10:56:15;38.65;;;5.28;;
58864;SDS011;45702;52.982;6.658;2023-01-26T10:58:54;38.60;;;4.63;;
58864;SDS011;45702;52.982;6.658;2023-01-26T11:01:22;42.78;;;5.38;;
58864;SDS011;45702;52.982;6.658;2023-01-26T11:04:00;43.13;;;4.88;;
58864;SDS011;45702;52.982;6.658;2023-01-26T11:06:31;44.40;;;5.05;;
58864;SDS011;45702;52.982;6.658;2023-01-26T11:11:38;38.08;;;4.25;;
58864;SDS011;45702;52.982;6.658;2023-01-26T11:14:17;36.75;;;4.53;;
58864;SDS011;45702;52.982;6.658;2023-01-26T11:16:52;43.28;;;5.43;;
58864;SDS011;45702;52.982;6.658;2023-01-26T11:22:08;30.13;;;3.95;;
58864;SDS011;45702;52.982;6.658;2023-01-26T11:24:42;36.17;;;4.45;;
58864;SDS011;45702;52.982;6.658;2023-01-26T11:41:05;35.67;;;3.65;;
58864;SDS011;45702;52.982;6.658;2023-01-26T11:57:23;22.52;;;3.20;;
58864;SDS011;45702;52.982;6.658;2023-01-26T12:00:05;36.00;;;4.18;;
58864;SDS011;45702;52.982;6.658;2023-01-26T12:02:44;33.20;;;3.70;;
58864;SDS011;45702;52.982;6.658;2023-01-26T12:05:22;30.48;;;3.20;;
58864;SDS011;45702;52.982;6.658;2023-01-26T12:07:56;31.92;;;3.10;;
58864;SDS011;45702;52.982;6.658;2023-01-26T12:13:49;25.80;;;3.60;;
58864;SDS011;45702;52.982;6.658;2023-01-26T12:16:39;25.35;;;2.83;;
58864;SDS011;45702;52.982;6.658;2023-01-26T12:27:46;25.00;;;2.23;;
58864;SDS011;45702;52.982;6.658;2023-01-26T12:32:55;15.73;;;2.17;;
58864;SDS011;45702;52.982;6.658;2023-01-26T12:35:26;18.73;;;2.40;;
58864;SDS011;45702;52.982;6.658;2023-01-26T12:43:39;19.52;;;2.42;;
58864;SDS011;45702;52.982;6.658;2023-01-26T12:46:30;24.02;;;2.67;;
58864;SDS011;45702;52.982;6.658;2023-01-26T12:49:02;24.20;;;2.40;;
58864;SDS011;45702;52.982;6.658;2023-01-26T12:51:36;23.73;;;2.47;;
58864;SDS011;45702;52.982;6.658;2023-01-26T12:54:13;21.63;;;2.88;;
58864;SDS011;45702;52.982;6.658;2023-01-26T12:56:57;18.83;;;2.90;;
58864;SDS011;45702;52.982;6.658;2023-01-26T12:59:30;23.88;;;3.15;;
58864;SDS011;45702;52.982;6.658;2023-01-26T13:01:58;27.40;;;3.50;;
58864;SDS011;45702;52.982;6.658;2023-01-26T13:04:55;19.30;;;2.88;;
58864;SDS011;45702;52.982;6.658;2023-01-26T13:07:30;23.33;;;3.00;;
58864;SDS011;45702;52.982;6.658;2023-01-26T13:12:58;21.00;;;2.70;;
58864;SDS011;45702;52.982;6.658;2023-01-26T13:16:06;21.35;;;3.17;;
58864;SDS011;45702;52.982;6.658;2023-01-26T13:19:02;26.13;;;3.75;;
58864;SDS011;45702;52.982;6.658;2023-01-26T13:26:52;29.42;;;2.92;;
58864;SDS011;45702;52.982;6.658;2023-01-26T13:34:38;23.20;;;2.70;;
58864;SDS011;45702;52.982;6.658;2023-01-26T13:37:08;17.52;;;2.70;;
58864;SDS011;45702;52.982;6.658;2023-01-26T13:39:38;29.80;;;2.80;;
58864;SDS011;45702;52.982;6.658;2023-01-26T13:42:15;32.78;;;3.63;;
58864;SDS011;45702;52.982;6.658;2023-01-26T13:45:00;18.45;;;2.85;;
58864;SDS011;45702;52.982;6.658;2023-01-26T13:47:37;19.85;;;2.58;;
58864;SDS011;45702;52.982;6.658;2023-01-26T13:50:20;19.45;;;2.03;;
58864;SDS011;45702;52.982;6.658;2023-01-26T13:52:46;12.30;;;2.22;;
58864;SDS011;45702;52.982;6.658;2023-01-26T13:55:18;19.25;;;2.15;;
58864;SDS011;45702;52.982;6.658;2023-01-26T13:58:13;13.70;;;1.70;;
58864;SDS011;45702;52.982;6.658;2023-01-26T14:00:40;16.40;;;2.38;;
58864;SDS011;45702;52.982;6.658;2023-01-26T14:03:19;12.15;;;2.38;;
58864;SDS011;45702;52.982;6.658;2023-01-26T14:06:05;13.43;;;1.88;;
58864;SDS011;45702;52.982;6.658;2023-01-26T14:08:34;11.73;;;1.40;;
58864;SDS011;45702;52.982;6.658;2023-01-26T14:11:01;12.63;;;1.70;;
58864;SDS011;45702;52.982;6.658;2023-01-26T14:13:35;12.45;;;1.70;;
58864;SDS011;45702;52.982;6.658;2023-01-26T14:16:02;12.35;;;1.73;;
58864;SDS011;45702;52.982;6.658;2023-01-26T14:21:05;13.23;;;1.90;;
58864;SDS011;45702;52.982;6.658;2023-01-26T14:23:41;10.27;;;1.85;;
58864;SDS011;45702;52.982;6.658;2023-01-26T14:26:18;13.63;;;2.10;;
58864;SDS011;45702;52.982;6.658;2023-01-26T14:28:45;17.75;;;1.90;;
58864;SDS011;45702;52.982;6.658;2023-01-26T14:31:14;15.13;;;3.00;;
58864;SDS011;45702;52.982;6.658;2023-01-26T14:33:44;15.00;;;2.20;;
58864;SDS011;45702;52.982;6.658;2023-01-26T14:36:15;23.75;;;3.30;;
58864;SDS011;45702;52.982;6.658;2023-01-26T14:38:43;19.05;;;3.03;;
58864;SDS011;45702;52.982;6.658;2023-01-26T14:43:49;22.75;;;3.05;;
58864;SDS011;45702;52.982;6.658;2023-01-26T14:46:23;25.83;;;3.15;;
58864;SDS011;45702;52.982;6.658;2023-01-26T14:49:00;19.38;;;3.10;;
58864;SDS011;45702;52.982;6.658;2023-01-26T14:51:31;13.57;;;3.70;;
58864;SDS011;45702;52.982;6.658;2023-01-26T14:53:59;18.15;;;3.53;;
58864;SDS011;45702;52.982;6.658;2023-01-26T14:56:38;21.80;;;4.00;;
58864;SDS011;45702;52.982;6.658;2023-01-26T14:59:07;27.05;;;3.50;;
58864;SDS011;45702;52.982;6.658;2023-01-26T15:01:50;25.27;;;3.25;;
58864;SDS011;45702;52.982;6.658;2023-01-26T15:04:29;26.48;;;3.10;;
58864;SDS011;45702;52.982;6.658;2023-01-26T15:10:02;21.63;;;3.00;;
58864;SDS011;45702;52.982;6.658;2023-01-26T15:12:54;21.85;;;2.85;;
58864;SDS011;45702;52.982;6.658;2023-01-26T15:20:55;22.98;;;2.80;;
58864;SDS011;45702;52.982;6.658;2023-01-26T15:23:29;23.10;;;2.83;;
58864;SDS011;45702;52.982;6.658;2023-01-26T15:28:54;21.08;;;2.88;;
58864;SDS011;45702;52.982;6.658;2023-01-26T15:31:29;26.97;;;5.20;;
58864;SDS011;45702;52.982;6.658;2023-01-26T15:33:59;20.00;;;5.20;;
58864;SDS011;45702;52.982;6.658;2023-01-26T15:36:27;26.80;;;4.40;;
58864;SDS011;45702;52.982;6.658;2023-01-26T15:38:59;26.73;;;3.50;;
58864;SDS011;45702;52.982;6.658;2023-01-26T15:41:40;25.90;;;3.67;;
58864;SDS011;45702;52.982;6.658;2023-01-26T15:44:14;23.17;;;2.75;;
58864;SDS011;45702;52.982;6.658;2023-01-26T15:46:43;28.33;;;3.85;;
58864;SDS011;45702;52.982;6.658;2023-01-26T15:49:10;29.73;;;3.28;;
58864;SDS011;45702;52.982;6.658;2023-01-26T15:51:36;19.65;;;3.83;;
58864;SDS011;45702;52.982;6.658;2023-01-26T15:54:02;25.05;;;3.47;;
58864;SDS011;45702;52.982;6.658;2023-01-26T15:56:28;31.23;;;3.67;;
58864;SDS011;45702;52.982;6.658;2023-01-26T15:58:55;35.95;;;3.30;;
58864;SDS011;45702;52.982;6.658;2023-01-26T16:01:21;27.40;;;3.35;;
58864;SDS011;45702;52.982;6.658;2023-01-26T16:03:50;30.63;;;5.05;;
58864;SDS011;45702;52.982;6.658;2023-01-26T16:08:52;29.83;;;3.65;;
58864;SDS011;45702;52.982;6.658;2023-01-26T16:11:19;31.58;;;4.13;;
58864;SDS011;45702;52.982;6.658;2023-01-26T16:13:47;24.13;;;3.85;;
58864;SDS011;45702;52.982;6.658;2023-01-26T16:16:13;37.85;;;4.85;;
58864;SDS011;45702;52.982;6.658;2023-01-26T16:18:40;34.78;;;4.18;;
58864;SDS011;45702;52.982;6.658;2023-01-26T16:21:14;32.80;;;5.15;;
58864;SDS011;45702;52.982;6.658;2023-01-26T16:23:42;34.58;;;4.97;;
58864;SDS011;45702;52.982;6.658;2023-01-26T16:26:09;37.15;;;4.88;;
58864;SDS011;45702;52.982;6.658;2023-01-26T16:28:36;31.13;;;4.53;;
58864;SDS011;45702;52.982;6.658;2023-01-26T16:31:03;29.60;;;4.70;;